sensor_id;sensor_type;location;lat;lon;timestamp;P1;durP1;ratioP1;P2;durP2;ratioP2
14169;SDS011;63889;50.596;8.690;2023-05-20T00:00:51;4.82;;;2.15;;
14169;SDS011;63889;50.596;8.690;2023-05-20T00:03:18;2.60;;;1.60;;
14169;SDS011;63889;50.596;8.690;2023-05-20T00:05:44;4.00;;;2.10;;
14169;SDS011;63889;50.596;8.690;2023-05-20T00:08:10;3.75;;;1.95;;
14169;SDS011;63889;50.596;8.690;2023-05-20T00:10:36;2.78;;;1.65;;
14169;SDS011;63889;50.596;8.690;2023-05-20T00:13:02;4.05;;;1.50;;
14169;SDS011;63889;50.596;8.690;2023-05-20T00:15:28;4.05;;;1.92;;
14169;SDS011;63889;50.596;8.690;2023-05-20T00:17:54;2.60;;;1.60;;
14169;SDS011;63889;50.596;8.690;2023-05-20T00:20:20;3.47;;;1.73;;
14169;SDS011;63889;50.596;8.690;2023-05-20T00:22:46;4.22;;;1.70;;
14169;SDS011;63889;50.596;8.690;2023-05-20T00:25:12;2.60;;;1.70;;
14169;SDS011;63889;50.596;8.690;2023-05-20T00:27:40;2.88;;;2.08;;
14169;SDS011;63889;50.596;8.690;2023-05-20T00:30:06;3.22;;;1.75;;
14169;SDS011;63889;50.596;8.690;2023-05-20T00:32:32;4.53;;;1.73;;
14169;SDS011;63889;50.596;8.690;2023-05-20T00:34:58;3.33;;;1.67;;
14169;SDS011;63889;50.596;8.690;2023-05-20T00:37:25;4.68;;;1.92;;
14169;SDS011;63889;50.596;8.690;2023-05-20T00:39:51;5.53;;;1.88;;
14169;SDS011;63889;50.596;8.690;2023-05-20T00:42:23;4.18;;;2.20;;
14169;SDS011;63889;50.596;8.690;2023-05-20T00:44:50;4.78;;;2.10;;
14169;SDS011;63889;50.596;8.690;2023-05-20T00:47:17;4.60;;;2.10;;
14169;SDS011;63889;50.596;8.690;2023-05-20T00:49:44;4.63;;;2.05;;
14169;SDS011;63889;50.596;8.690;2023-05-20T00:52:10;4.65;;;1.98;;
14169;SDS011;63889;50.596;8.690;2023-05-20T00:54:37;6.10;;;2.20;;
14169;SDS011;63889;50.596;8.690;2023-05-20T00:57:04;5.45;;;2.45;;
14169;SDS011;63889;50.596;8.690;2023-05-20T00:59:32;7.53;;;2.42;;
14169;SDS011;63889;50.596;8.690;2023-05-20T01:01:59;3.90;;;2.20;;
14169;SDS011;63889;50.596;8.690;2023-05-20T01:04:25;4.97;;;2.10;;
14169;SDS011;63889;50.596;8.690;2023-05-20T01:06:51;7.07;;;2.03;;
14169;SDS011;63889;50.596;8.690;2023-05-20T01:09:16;2.85;;;2.03;;
14169;SDS011;63889;50.596;8.690;2023-05-20T01:11:58;9.32;;;2.08;;
14169;SDS011;63889;50.596;8.690;2023-05-20T01:14:36;3.33;;;1.90;;
14169;SDS011;63889;50.596;8.690;2023-05-20T01:17:25;3.85;;;2.00;;
14169;SDS011;63889;50.596;8.690;2023-05-20T01:19:55;4.40;;;2.35;;
14169;SDS011;63889;50.596;8.690;2023-05-20T01:22:24;3.03;;;2.35;;
14169;SDS011;63889;50.596;8.690;2023-05-20T01:24:50;6.40;;;2.33;;
14169;SDS011;63889;50.596;8.690;2023-05-20T01:27:19;3.88;;;2.15;;
14169;SDS011;63889;50.596;8.690;2023-05-20T01:29:46;3.58;;;2.15;;
14169;SDS011;63889;50.596;8.690;2023-05-20T01:32:20;4.63;;;2.20;;
14169;SDS011;63889;50.596;8.690;2023-05-20T01:34:56;2.78;;;2.20;;
14169;SDS011;63889;50.596;8.690;2023-05-20T01:37:23;4.05;;;1.80;;
14169;SDS011;63889;50.596;8.690;2023-05-20T01:39:49;3.53;;;1.98;;
14169;SDS011;63889;50.596;8.690;2023-05-20T01:42:16;6.75;;;1.90;;
14169;SDS011;63889;50.596;8.690;2023-05-20T01:44:43;3.55;;;2.38;;
14169;SDS011;63889;50.596;8.690;2023-05-20T01:47:09;3.53;;;1.73;;
14169;SDS011;63889;50.596;8.690;2023-05-20T01:49:34;7.07;;;2.22;;
14169;SDS011;63889;50.596;8.690;2023-05-20T01:52:00;4.70;;;2.42;;
14169;SDS011;63889;50.596;8.690;2023-05-20T01:54:25;5.57;;;2.20;;
14169;SDS011;63889;50.596;8.690;2023-05-20T01:56:51;4.85;;;2.17;;
14169;SDS011;63889;50.596;8.690;2023-05-20T01:59:17;3.22;;;2.17;;
14169;SDS011;63889;50.596;8.690;2023-05-20T02:01:42;6.85;;;2.50;;
14169;SDS011;63889;50.596;8.690;2023-05-20T02:04:08;2.47;;;1.90;;
14169;SDS011;63889;50.596;8.690;2023-05-20T02:06:33;3.30;;;2.10;;
14169;SDS011;63889;50.596;8.690;2023-05-20T02:08:59;4.82;;;2.58;;
14169;SDS011;63889;50.596;8.690;2023-05-20T02:11:25;3.63;;;2.00;;
14169;SDS011;63889;50.596;8.690;2023-05-20T02:13:50;3.67;;;2.10;;
14169;SDS011;63889;50.596;8.690;2023-05-20T02:16:16;3.42;;;2.45;;
14169;SDS011;63889;50.596;8.690;2023-05-20T02:18:42;3.22;;;2.53;;
14169;SDS011;63889;50.596;8.690;2023-05-20T02:21:08;8.63;;;2.33;;
14169;SDS011;63889;50.596;8.690;2023-05-20T02:23:33;4.47;;;2.28;;
14169;SDS011;63889;50.596;8.690;2023-05-20T02:25:59;6.10;;;2.53;;
14169;SDS011;63889;50.596;8.690;2023-05-20T02:28:25;4.05;;;2.50;;
14169;SDS011;63889;50.596;8.690;2023-05-20T02:30:51;3.05;;;2.55;;
14169;SDS011;63889;50.596;8.690;2023-05-20T02:33:17;2.83;;;2.03;;
14169;SDS011;63889;50.596;8.690;2023-05-20T02:35:43;4.30;;;2.20;;
14169;SDS011;63889;50.596;8.690;2023-05-20T02:38:09;5.25;;;2.55;;
14169;SDS011;63889;50.596;8.690;2023-05-20T02:40:35;4.95;;;2.20;;
14169;SDS011;63889;50.596;8.690;2023-05-20T02:43:01;3.42;;;2.20;;
14169;SDS011;63889;50.596;8.690;2023-05-20T02:45:27;3.70;;;2.25;;
14169;SDS011;63889;50.596;8.690;2023-05-20T02:47:52;2.92;;;2.28;;
14169;SDS011;63889;50.596;8.690;2023-05-20T02:50:18;13.20;;;2.78;;
14169;SDS011;63889;50.596;8.690;2023-05-20T02:52:43;3.45;;;2.58;;
14169;SDS011;63889;50.596;8.690;2023-05-20T02:55:09;7.13;;;2.15;;
14169;SDS011;63889;50.596;8.690;2023-05-20T02:57:35;5.03;;;2.28;;
14169;SDS011;63889;50.596;8.690;2023-05-20T03:00:05;5.47;;;2.72;;
14169;SDS011;63889;50.596;8.690;2023-05-20T03:02:34;3.35;;;2.20;;
14169;SDS011;63889;50.596;8.690;2023-05-20T03:05:00;6.20;;;2.70;;
14169;SDS011;63889;50.596;8.690;2023-05-20T03:07:26;3.95;;;2.55;;
14169;SDS011;63889;50.596;8.690;2023-05-20T03:09:52;5.78;;;2.47;;
14169;SDS011;63889;50.596;8.690;2023-05-20T03:12:17;3.50;;;2.22;;
14169;SDS011;63889;50.596;8.690;2023-05-20T03:14:43;4.45;;;2.60;;
14169;SDS011;63889;50.596;8.690;2023-05-20T03:17:08;5.05;;;2.53;;
14169;SDS011;63889;50.596;8.690;2023-05-20T03:19:34;4.90;;;2.30;;
14169;SDS011;63889;50.596;8.690;2023-05-20T03:22:00;3.80;;;2.28;;
14169;SDS011;63889;50.596;8.690;2023-05-20T03:24:26;4.38;;;2.42;;
14169;SDS011;63889;50.596;8.690;2023-05-20T03:26:52;4.07;;;2.72;;
14169;SDS011;63889;50.596;8.690;2023-05-20T03:29:18;3.38;;;2.42;;
14169;SDS011;63889;50.596;8.690;2023-05-20T03:31:43;3.17;;;2.35;;
14169;SDS011;63889;50.596;8.690;2023-05-20T03:34:09;5.93;;;2.55;;
14169;SDS011;63889;50.596;8.690;2023-05-20T03:36:34;7.28;;;3.13;;
14169;SDS011;63889;50.596;8.690;2023-05-20T03:39:00;4.20;;;2.60;;
14169;SDS011;63889;50.596;8.690;2023-05-20T03:41:26;3.72;;;2.33;;
14169;SDS011;63889;50.596;8.690;2023-05-20T03:43:52;4.63;;;2.38;;
14169;SDS011;63889;50.596;8.690;2023-05-20T03:46:17;3.13;;;2.03;;
14169;SDS011;63889;50.596;8.690;2023-05-20T03:48:43;3.70;;;2.55;;
14169;SDS011;63889;50.596;8.690;2023-05-20T03:51:08;4.18;;;2.65;;
14169;SDS011;63889;50.596;8.690;2023-05-20T03:53:34;7.30;;;2.97;;
14169;SDS011;63889;50.596;8.690;2023-05-20T03:56:00;3.42;;;2.80;;
14169;SDS011;63889;50.596;8.690;2023-05-20T03:58:25;7.78;;;3.08;;
14169;SDS011;63889;50.596;8.690;2023-05-20T04:00:53;6.90;;;2.83;;
14169;SDS011;63889;50.596;8.690;2023-05-20T04:03:19;7.38;;;2.83;;
14169;SDS011;63889;50.596;8.690;2023-05-20T04:05:44;4.90;;;3.33;;
14169;SDS011;63889;50.596;8.690;2023-05-20T04:08:10;5.70;;;2.83;;
14169;SDS011;63889;50.596;8.690;2023-05-20T04:10:39;3.67;;;2.47;;
14169;SDS011;63889;50.596;8.690;2023-05-20T04:13:06;4.15;;;2.60;;
14169;SDS011;63889;50.596;8.690;2023-05-20T04:15:34;5.28;;;2.97;;
14169;SDS011;63889;50.596;8.690;2023-05-20T04:18:00;6.05;;;2.90;;
14169;SDS011;63889;50.596;8.690;2023-05-20T04:20:26;7.15;;;2.75;;
14169;SDS011;63889;50.596;8.690;2023-05-20T04:22:51;6.20;;;2.65;;
14169;SDS011;63889;50.596;8.690;2023-05-20T04:25:18;6.22;;;3.15;;
14169;SDS011;63889;50.596;8.690;2023-05-20T04:27:43;5.15;;;3.13;;
14169;SDS011;63889;50.596;8.690;2023-05-20T04:30:09;6.43;;;3.15;;
14169;SDS011;63889;50.596;8.690;2023-05-20T04:32:35;3.83;;;2.83;;
14169;SDS011;63889;50.596;8.690;2023-05-20T04:35:01;6.25;;;2.65;;
14169;SDS011;63889;50.596;8.690;2023-05-20T04:37:27;4.88;;;2.85;;
14169;SDS011;63889;50.596;8.690;2023-05-20T04:39:53;4.80;;;3.30;;
14169;SDS011;63889;50.596;8.690;2023-05-20T04:42:18;7.57;;;2.70;;
14169;SDS011;63889;50.596;8.690;2023-05-20T04:44:45;7.15;;;2.90;;
14169;SDS011;63889;50.596;8.690;2023-05-20T04:47:12;7.63;;;3.58;;
14169;SDS011;63889;50.596;8.690;2023-05-20T04:49:38;6.05;;;2.75;;
14169;SDS011;63889;50.596;8.690;2023-05-20T04:52:04;10.93;;;3.30;;
14169;SDS011;63889;50.596;8.690;2023-05-20T04:54:29;12.35;;;3.40;;
14169;SDS011;63889;50.596;8.690;2023-05-20T04:56:56;4.60;;;2.97;;
14169;SDS011;63889;50.596;8.690;2023-05-20T04:59:22;7.63;;;3.17;;
14169;SDS011;63889;50.596;8.690;2023-05-20T05:01:48;6.68;;;2.90;;
14169;SDS011;63889;50.596;8.690;2023-05-20T05:04:14;5.38;;;3.30;;
14169;SDS011;63889;50.596;8.690;2023-05-20T05:06:39;4.78;;;3.03;;
14169;SDS011;63889;50.596;8.690;2023-05-20T05:09:05;5.57;;;3.30;;
14169;SDS011;63889;50.596;8.690;2023-05-20T05:11:31;7.18;;;3.17;;
14169;SDS011;63889;50.596;8.690;2023-05-20T05:13:57;7.85;;;3.63;;
14169;SDS011;63889;50.596;8.690;2023-05-20T05:16:23;5.70;;;3.80;;
14169;SDS011;63889;50.596;8.690;2023-05-20T05:18:48;7.70;;;3.63;;
14169;SDS011;63889;50.596;8.690;2023-05-20T05:21:14;8.38;;;3.63;;
14169;SDS011;63889;50.596;8.690;2023-05-20T05:23:39;6.50;;;3.22;;
14169;SDS011;63889;50.596;8.690;2023-05-20T05:26:06;8.70;;;3.80;;
14169;SDS011;63889;50.596;8.690;2023-05-20T05:28:32;8.30;;;3.60;;
14169;SDS011;63889;50.596;8.690;2023-05-20T05:30:57;8.68;;;4.20;;
14169;SDS011;63889;50.596;8.690;2023-05-20T05:33:23;9.82;;;3.80;;
14169;SDS011;63889;50.596;8.690;2023-05-20T05:35:49;7.15;;;3.60;;
14169;SDS011;63889;50.596;8.690;2023-05-20T05:38:14;6.78;;;3.90;;
14169;SDS011;63889;50.596;8.690;2023-05-20T05:40:40;9.38;;;4.63;;
14169;SDS011;63889;50.596;8.690;2023-05-20T05:43:06;6.38;;;3.83;;
14169;SDS011;63889;50.596;8.690;2023-05-20T05:45:31;11.35;;;4.95;;
14169;SDS011;63889;50.596;8.690;2023-05-20T05:47:57;7.55;;;4.15;;
14169;SDS011;63889;50.596;8.690;2023-05-20T05:50:23;10.75;;;3.63;;
14169;SDS011;63889;50.596;8.690;2023-05-20T05:52:48;7.72;;;3.85;;
14169;SDS011;63889;50.596;8.690;2023-05-20T05:55:14;9.65;;;4.30;;
14169;SDS011;63889;50.596;8.690;2023-05-20T05:57:39;8.77;;;4.60;;
14169;SDS011;63889;50.596;8.690;2023-05-20T06:00:05;7.28;;;4.13;;
14169;SDS011;63889;50.596;8.690;2023-05-20T06:02:31;6.90;;;4.10;;
14169;SDS011;63889;50.596;8.690;2023-05-20T06:05:03;9.18;;;4.45;;
14169;SDS011;63889;50.596;8.690;2023-05-20T06:07:29;7.57;;;4.53;;
14169;SDS011;63889;50.596;8.690;2023-05-20T06:09:55;8.65;;;4.38;;
14169;SDS011;63889;50.596;8.690;2023-05-20T06:12:21;5.90;;;4.28;;
14169;SDS011;63889;50.596;8.690;2023-05-20T06:14:47;8.15;;;4.65;;
14169;SDS011;63889;50.596;8.690;2023-05-20T06:17:13;11.07;;;4.47;;
14169;SDS011;63889;50.596;8.690;2023-05-20T06:19:39;6.90;;;4.57;;
14169;SDS011;63889;50.596;8.690;2023-05-20T06:22:04;7.22;;;4.80;;
14169;SDS011;63889;50.596;8.690;2023-05-20T06:24:30;8.43;;;5.45;;
14169;SDS011;63889;50.596;8.690;2023-05-20T06:26:58;7.32;;;4.32;;
14169;SDS011;63889;50.596;8.690;2023-05-20T06:29:23;7.68;;;4.63;;
14169;SDS011;63889;50.596;8.690;2023-05-20T06:31:49;10.10;;;5.22;;
14169;SDS011;63889;50.596;8.690;2023-05-20T06:34:15;7.80;;;4.80;;
14169;SDS011;63889;50.596;8.690;2023-05-20T06:36:40;10.63;;;4.97;;
14169;SDS011;63889;50.596;8.690;2023-05-20T06:39:06;11.55;;;5.13;;
14169;SDS011;63889;50.596;8.690;2023-05-20T06:41:36;9.15;;;5.13;;
14169;SDS011;63889;50.596;8.690;2023-05-20T06:44:02;10.27;;;5.78;;
14169;SDS011;63889;50.596;8.690;2023-05-20T06:46:28;7.15;;;5.28;;
14169;SDS011;63889;50.596;8.690;2023-05-20T06:48:54;7.20;;;4.93;;
14169;SDS011;63889;50.596;8.690;2023-05-20T06:51:20;8.38;;;4.72;;
14169;SDS011;63889;50.596;8.690;2023-05-20T06:53:46;10.63;;;5.85;;
14169;SDS011;63889;50.596;8.690;2023-05-20T06:56:11;8.35;;;5.10;;
14169;SDS011;63889;50.596;8.690;2023-05-20T06:58:37;9.85;;;5.60;;
14169;SDS011;63889;50.596;8.690;2023-05-20T07:01:02;6.63;;;5.10;;
14169;SDS011;63889;50.596;8.690;2023-05-20T07:03:28;7.18;;;4.53;;
14169;SDS011;63889;50.596;8.690;2023-05-20T07:05:53;6.10;;;5.18;;
14169;SDS011;63889;50.596;8.690;2023-05-20T07:08:19;8.02;;;5.45;;
14169;SDS011;63889;50.596;8.690;2023-05-20T07:10:45;10.05;;;5.68;;
14169;SDS011;63889;50.596;8.690;2023-05-20T07:13:10;10.73;;;5.47;;
14169;SDS011;63889;50.596;8.690;2023-05-20T07:15:36;11.45;;;5.95;;
14169;SDS011;63889;50.596;8.690;2023-05-20T07:18:02;9.98;;;6.28;;
14169;SDS011;63889;50.596;8.690;2023-05-20T07:20:28;8.40;;;5.07;;
14169;SDS011;63889;50.596;8.690;2023-05-20T07:22:53;12.98;;;6.53;;
14169;SDS011;63889;50.596;8.690;2023-05-20T07:25:19;9.13;;;6.00;;
14169;SDS011;63889;50.596;8.690;2023-05-20T07:27:44;10.40;;;5.75;;
14169;SDS011;63889;50.596;8.690;2023-05-20T07:30:10;11.60;;;6.55;;
14169;SDS011;63889;50.596;8.690;2023-05-20T07:32:36;13.38;;;6.13;;
14169;SDS011;63889;50.596;8.690;2023-05-20T07:35:01;7.93;;;5.63;;
14169;SDS011;63889;50.596;8.690;2023-05-20T07:37:27;10.38;;;5.75;;
14169;SDS011;63889;50.596;8.690;2023-05-20T07:39:53;7.88;;;5.35;;
14169;SDS011;63889;50.596;8.690;2023-05-20T07:42:18;11.25;;;5.47;;
14169;SDS011;63889;50.596;8.690;2023-05-20T07:44:44;8.70;;;5.47;;
14169;SDS011;63889;50.596;8.690;2023-05-20T07:47:09;9.82;;;5.75;;
14169;SDS011;63889;50.596;8.690;2023-05-20T07:49:35;11.30;;;6.35;;
14169;SDS011;63889;50.596;8.690;2023-05-20T07:52:00;8.07;;;5.30;;
14169;SDS011;63889;50.596;8.690;2023-05-20T07:54:26;9.45;;;5.88;;
14169;SDS011;63889;50.596;8.690;2023-05-20T07:56:51;13.15;;;7.63;;
14169;SDS011;63889;50.596;8.690;2023-05-20T07:59:17;12.05;;;6.60;;
14169;SDS011;63889;50.596;8.690;2023-05-20T08:01:43;11.23;;;6.45;;
14169;SDS011;63889;50.596;8.690;2023-05-20T08:04:08;11.77;;;7.22;;
14169;SDS011;63889;50.596;8.690;2023-05-20T08:06:34;11.55;;;6.15;;
14169;SDS011;63889;50.596;8.690;2023-05-20T08:09:00;10.60;;;6.65;;
14169;SDS011;63889;50.596;8.690;2023-05-20T08:11:26;13.88;;;7.38;;
14169;SDS011;63889;50.596;8.690;2023-05-20T08:13:52;10.27;;;6.10;;
14169;SDS011;63889;50.596;8.690;2023-05-20T08:16:19;10.68;;;6.07;;
14169;SDS011;63889;50.596;8.690;2023-05-20T08:18:45;11.52;;;6.25;;
14169;SDS011;63889;50.596;8.690;2023-05-20T08:21:11;12.32;;;6.70;;
14169;SDS011;63889;50.596;8.690;2023-05-20T08:23:36;11.20;;;6.45;;
14169;SDS011;63889;50.596;8.690;2023-05-20T08:26:02;7.60;;;5.95;;
14169;SDS011;63889;50.596;8.690;2023-05-20T08:28:28;10.82;;;6.65;;
14169;SDS011;63889;50.596;8.690;2023-05-20T08:30:54;9.25;;;6.43;;
14169;SDS011;63889;50.596;8.690;2023-05-20T08:33:20;9.65;;;5.85;;
14169;SDS011;63889;50.596;8.690;2023-05-20T08:35:46;9.30;;;6.57;;
14169;SDS011;63889;50.596;8.690;2023-05-20T08:38:12;15.98;;;6.20;;
14169;SDS011;63889;50.596;8.690;2023-05-20T08:40:37;9.27;;;6.80;;
14169;SDS011;63889;50.596;8.690;2023-05-20T08:43:03;11.88;;;6.47;;
14169;SDS011;63889;50.596;8.690;2023-05-20T08:45:32;11.90;;;6.22;;
14169;SDS011;63889;50.596;8.690;2023-05-20T08:50:28;8.85;;;6.03;;
14169;SDS011;63889;50.596;8.690;2023-05-20T08:52:54;9.18;;;6.03;;
14169;SDS011;63889;50.596;8.690;2023-05-20T08:55:24;9.32;;;6.40;;
14169;SDS011;63889;50.596;8.690;2023-05-20T08:57:50;8.82;;;6.43;;
14169;SDS011;63889;50.596;8.690;2023-05-20T09:00:18;9.95;;;6.38;;
14169;SDS011;63889;50.596;8.690;2023-05-20T09:02:47;8.57;;;6.05;;
14169;SDS011;63889;50.596;8.690;2023-05-20T09:05:13;10.20;;;5.90;;
14169;SDS011;63889;50.596;8.690;2023-05-20T09:07:39;10.93;;;6.43;;
14169;SDS011;63889;50.596;8.690;2023-05-20T09:10:07;9.65;;;6.43;;
14169;SDS011;63889;50.596;8.690;2023-05-20T09:12:33;9.05;;;6.45;;
14169;SDS011;63889;50.596;8.690;2023-05-20T09:14:59;9.90;;;6.25;;
14169;SDS011;63889;50.596;8.690;2023-05-20T09:17:25;10.65;;;6.57;;
14169;SDS011;63889;50.596;8.690;2023-05-20T09:19:51;9.48;;;6.10;;
14169;SDS011;63889;50.596;8.690;2023-05-20T09:22:23;8.35;;;6.53;;
14169;SDS011;63889;50.596;8.690;2023-05-20T09:24:50;9.45;;;6.38;;
14169;SDS011;63889;50.596;8.690;2023-05-20T09:27:17;10.63;;;6.55;;
14169;SDS011;63889;50.596;8.690;2023-05-20T09:29:44;8.10;;;5.72;;
14169;SDS011;63889;50.596;8.690;2023-05-20T09:32:12;8.35;;;5.72;;
14169;SDS011;63889;50.596;8.690;2023-05-20T09:34:38;13.20;;;5.95;;
14169;SDS011;63889;50.596;8.690;2023-05-20T09:37:06;10.52;;;6.57;;
14169;SDS011;63889;50.596;8.690;2023-05-20T09:39:32;10.25;;;7.30;;
14169;SDS011;63889;50.596;8.690;2023-05-20T09:42:11;9.73;;;6.20;;
14169;SDS011;63889;50.596;8.690;2023-05-20T09:44:44;10.07;;;6.78;;
14169;SDS011;63889;50.596;8.690;2023-05-20T09:47:12;9.65;;;7.03;;
14169;SDS011;63889;50.596;8.690;2023-05-20T09:49:39;12.05;;;6.72;;
14169;SDS011;63889;50.596;8.690;2023-05-20T09:52:06;15.93;;;6.82;;
14169;SDS011;63889;50.596;8.690;2023-05-20T09:54:32;9.82;;;6.20;;
14169;SDS011;63889;50.596;8.690;2023-05-20T09:57:00;11.57;;;6.25;;
14169;SDS011;63889;50.596;8.690;2023-05-20T09:59:27;8.98;;;6.20;;
14169;SDS011;63889;50.596;8.690;2023-05-20T10:01:55;8.73;;;5.75;;
14169;SDS011;63889;50.596;8.690;2023-05-20T10:04:21;9.07;;;5.90;;
14169;SDS011;63889;50.596;8.690;2023-05-20T10:07:08;14.00;;;7.03;;
14169;SDS011;63889;50.596;8.690;2023-05-20T10:09:52;9.00;;;6.15;;
14169;SDS011;63889;50.596;8.690;2023-05-20T10:18:55;13.20;;;6.55;;
14169;SDS011;63889;50.596;8.690;2023-05-20T10:21:23;7.22;;;5.53;;
14169;SDS011;63889;50.596;8.690;2023-05-20T10:23:49;15.23;;;6.43;;
14169;SDS011;63889;50.596;8.690;2023-05-20T10:26:16;9.50;;;6.35;;
14169;SDS011;63889;50.596;8.690;2023-05-20T10:28:42;11.15;;;6.30;;
14169;SDS011;63889;50.596;8.690;2023-05-20T10:31:17;9.63;;;7.05;;
14169;SDS011;63889;50.596;8.690;2023-05-20T10:33:45;14.88;;;6.97;;
14169;SDS011;63889;50.596;8.690;2023-05-20T10:36:33;11.15;;;6.22;;
14169;SDS011;63889;50.596;8.690;2023-05-20T10:38:58;13.55;;;6.70;;
14169;SDS011;63889;50.596;8.690;2023-05-20T10:41:27;10.60;;;6.57;;
14169;SDS011;63889;50.596;8.690;2023-05-20T10:44:05;8.30;;;5.47;;
14169;SDS011;63889;50.596;8.690;2023-05-20T10:46:32;9.73;;;6.07;;
14169;SDS011;63889;50.596;8.690;2023-05-20T10:48:58;11.23;;;6.40;;
14169;SDS011;63889;50.596;8.690;2023-05-20T10:51:27;9.95;;;6.35;;
14169;SDS011;63889;50.596;8.690;2023-05-20T10:53:54;10.82;;;6.72;;
14169;SDS011;63889;50.596;8.690;2023-05-20T10:56:20;12.82;;;6.60;;
14169;SDS011;63889;50.596;8.690;2023-05-20T10:58:47;8.80;;;6.35;;
14169;SDS011;63889;50.596;8.690;2023-05-20T11:01:14;10.70;;;6.35;;
14169;SDS011;63889;50.596;8.690;2023-05-20T11:03:41;9.43;;;6.38;;
14169;SDS011;63889;50.596;8.690;2023-05-20T11:06:11;12.40;;;7.45;;
14169;SDS011;63889;50.596;8.690;2023-05-20T11:08:38;8.88;;;6.65;;
14169;SDS011;63889;50.596;8.690;2023-05-20T11:11:03;14.25;;;6.85;;
14169;SDS011;63889;50.596;8.690;2023-05-20T11:13:30;10.82;;;6.82;;
14169;SDS011;63889;50.596;8.690;2023-05-20T11:15:55;10.57;;;6.85;;
14169;SDS011;63889;50.596;8.690;2023-05-20T11:18:23;9.30;;;6.20;;
14169;SDS011;63889;50.596;8.690;2023-05-20T11:20:54;17.15;;;7.50;;
14169;SDS011;63889;50.596;8.690;2023-05-20T11:23:23;14.05;;;7.22;;
14169;SDS011;63889;50.596;8.690;2023-05-20T11:25:50;10.38;;;6.70;;
14169;SDS011;63889;50.596;8.690;2023-05-20T11:28:20;9.57;;;6.70;;
14169;SDS011;63889;50.596;8.690;2023-05-20T11:30:47;9.63;;;6.90;;
14169;SDS011;63889;50.596;8.690;2023-05-20T11:33:13;12.25;;;6.80;;
14169;SDS011;63889;50.596;8.690;2023-05-20T11:35:50;12.00;;;6.28;;
14169;SDS011;63889;50.596;8.690;2023-05-20T11:38:18;7.93;;;5.97;;
14169;SDS011;63889;50.596;8.690;2023-05-20T11:40:45;12.05;;;6.57;;
14169;SDS011;63889;50.596;8.690;2023-05-20T11:43:20;13.05;;;6.30;;
14169;SDS011;63889;50.596;8.690;2023-05-20T11:45:51;9.43;;;7.22;;
14169;SDS011;63889;50.596;8.690;2023-05-20T11:50:44;8.70;;;6.20;;
14169;SDS011;63889;50.596;8.690;2023-05-20T11:53:17;7.80;;;5.82;;
14169;SDS011;63889;50.596;8.690;2023-05-20T11:58:18;11.52;;;6.50;;
14169;SDS011;63889;50.596;8.690;2023-05-20T12:00:45;11.25;;;6.88;;
14169;SDS011;63889;50.596;8.690;2023-05-20T12:03:11;9.43;;;6.28;;
14169;SDS011;63889;50.596;8.690;2023-05-20T12:05:37;13.70;;;6.55;;
14169;SDS011;63889;50.596;8.690;2023-05-20T12:08:03;19.33;;;7.45;;
14169;SDS011;63889;50.596;8.690;2023-05-20T12:10:29;11.60;;;6.82;;
14169;SDS011;63889;50.596;8.690;2023-05-20T12:12:55;13.15;;;6.97;;
14169;SDS011;63889;50.596;8.690;2023-05-20T12:15:21;14.50;;;7.07;;
14169;SDS011;63889;50.596;8.690;2023-05-20T12:17:47;8.77;;;6.47;;
14169;SDS011;63889;50.596;8.690;2023-05-20T12:20:14;9.18;;;6.35;;
14169;SDS011;63889;50.596;8.690;2023-05-20T12:22:41;9.57;;;6.57;;
14169;SDS011;63889;50.596;8.690;2023-05-20T12:25:09;11.18;;;6.72;;
14169;SDS011;63889;50.596;8.690;2023-05-20T12:27:43;10.27;;;6.53;;
14169;SDS011;63889;50.596;8.690;2023-05-20T12:30:14;13.93;;;6.93;;
14169;SDS011;63889;50.596;8.690;2023-05-20T12:32:47;13.43;;;6.95;;
14169;SDS011;63889;50.596;8.690;2023-05-20T12:35:14;10.40;;;6.70;;
14169;SDS011;63889;50.596;8.690;2023-05-20T12:37:40;10.50;;;6.82;;
14169;SDS011;63889;50.596;8.690;2023-05-20T12:40:07;11.80;;;7.00;;
14169;SDS011;63889;50.596;8.690;2023-05-20T12:42:35;14.85;;;6.63;;
14169;SDS011;63889;50.596;8.690;2023-05-20T12:45:04;13.48;;;7.45;;
14169;SDS011;63889;50.596;8.690;2023-05-20T12:47:31;11.63;;;6.95;;
14169;SDS011;63889;50.596;8.690;2023-05-20T12:49:57;11.95;;;7.43;;
14169;SDS011;63889;50.596;8.690;2023-05-20T12:52:23;9.20;;;6.55;;
14169;SDS011;63889;50.596;8.690;2023-05-20T12:54:49;9.02;;;6.70;;
14169;SDS011;63889;50.596;8.690;2023-05-20T12:57:15;12.55;;;7.32;;
14169;SDS011;63889;50.596;8.690;2023-05-20T12:59:42;12.02;;;6.80;;
14169;SDS011;63889;50.596;8.690;2023-05-20T13:02:08;8.38;;;6.28;;
14169;SDS011;63889;50.596;8.690;2023-05-20T13:04:34;11.50;;;6.40;;
14169;SDS011;63889;50.596;8.690;2023-05-20T13:07:00;8.57;;;6.18;;
14169;SDS011;63889;50.596;8.690;2023-05-20T13:09:26;8.93;;;6.22;;
14169;SDS011;63889;50.596;8.690;2023-05-20T13:11:51;11.10;;;6.60;;
14169;SDS011;63889;50.596;8.690;2023-05-20T13:14:17;8.88;;;6.85;;
14169;SDS011;63889;50.596;8.690;2023-05-20T13:16:42;8.43;;;6.00;;
14169;SDS011;63889;50.596;8.690;2023-05-20T13:19:08;13.75;;;7.32;;
14169;SDS011;63889;50.596;8.690;2023-05-20T13:21:33;10.45;;;6.45;;
14169;SDS011;63889;50.596;8.690;2023-05-20T13:23:59;8.27;;;6.00;;
14169;SDS011;63889;50.596;8.690;2023-05-20T13:26:25;9.15;;;6.55;;
14169;SDS011;63889;50.596;8.690;2023-05-20T13:28:51;9.82;;;6.60;;
14169;SDS011;63889;50.596;8.690;2023-05-20T13:31:16;10.60;;;6.43;;
14169;SDS011;63889;50.596;8.690;2023-05-20T13:33:42;11.00;;;6.28;;
14169;SDS011;63889;50.596;8.690;2023-05-20T13:36:07;11.82;;;6.10;;
14169;SDS011;63889;50.596;8.690;2023-05-20T13:38:34;10.80;;;7.18;;
14169;SDS011;63889;50.596;8.690;2023-05-20T13:41:00;8.98;;;5.97;;
14169;SDS011;63889;50.596;8.690;2023-05-20T13:43:25;8.18;;;5.97;;
14169;SDS011;63889;50.596;8.690;2023-05-20T13:45:52;9.88;;;6.47;;
14169;SDS011;63889;50.596;8.690;2023-05-20T13:48:18;8.52;;;5.90;;
14169;SDS011;63889;50.596;8.690;2023-05-20T13:50:43;7.85;;;5.78;;
14169;SDS011;63889;50.596;8.690;2023-05-20T13:53:09;9.13;;;6.10;;
14169;SDS011;63889;50.596;8.690;2023-05-20T13:55:37;10.85;;;6.55;;
14169;SDS011;63889;50.596;8.690;2023-05-20T13:58:06;10.18;;;5.97;;
14169;SDS011;63889;50.596;8.690;2023-05-20T14:00:36;10.55;;;5.95;;
14169;SDS011;63889;50.596;8.690;2023-05-20T14:03:02;10.50;;;6.00;;
14169;SDS011;63889;50.596;8.690;2023-05-20T14:05:31;9.02;;;5.50;;
14169;SDS011;63889;50.596;8.690;2023-05-20T14:07:57;7.28;;;5.55;;
14169;SDS011;63889;50.596;8.690;2023-05-20T14:10:23;9.80;;;6.15;;
14169;SDS011;63889;50.596;8.690;2023-05-20T14:12:49;12.05;;;6.60;;
14169;SDS011;63889;50.596;8.690;2023-05-20T14:15:16;12.88;;;7.15;;
14169;SDS011;63889;50.596;8.690;2023-05-20T14:17:41;12.38;;;7.15;;
14169;SDS011;63889;50.596;8.690;2023-05-20T14:20:07;8.85;;;6.05;;
14169;SDS011;63889;50.596;8.690;2023-05-20T14:22:33;9.48;;;6.80;;
14169;SDS011;63889;50.596;8.690;2023-05-20T14:24:58;9.07;;;6.60;;
14169;SDS011;63889;50.596;8.690;2023-05-20T14:27:24;9.35;;;6.30;;
14169;SDS011;63889;50.596;8.690;2023-05-20T14:29:49;9.30;;;5.45;;
14169;SDS011;63889;50.596;8.690;2023-05-20T14:32:15;8.77;;;6.30;;
14169;SDS011;63889;50.596;8.690;2023-05-20T14:34:40;9.73;;;7.10;;
14169;SDS011;63889;50.596;8.690;2023-05-20T14:37:06;9.02;;;6.43;;
14169;SDS011;63889;50.596;8.690;2023-05-20T14:39:34;11.10;;;7.03;;
14169;SDS011;63889;50.596;8.690;2023-05-20T14:42:00;9.15;;;6.75;;
14169;SDS011;63889;50.596;8.690;2023-05-20T14:44:27;9.45;;;6.90;;
14169;SDS011;63889;50.596;8.690;2023-05-20T14:46:52;10.13;;;6.72;;
14169;SDS011;63889;50.596;8.690;2023-05-20T14:49:18;9.63;;;6.68;;
14169;SDS011;63889;50.596;8.690;2023-05-20T14:51:44;10.80;;;7.40;;
14169;SDS011;63889;50.596;8.690;2023-05-20T14:54:09;9.93;;;6.00;;